Главная страница
METAR-TAF:

METAR-TAF

Аэропорты :

Висбю, Готланд, Швеция

широта: 57-40N, долгота: 018-21E, высота над уровнем моря: 51 м

Текущие метеонаблюдения

Эта сводка был подготовлена 47 минут назад, в 14:20 UTC
Ветер 12 Узел от восточный
Температура 15°C
Влажность 82%
Давление 1007 hPa
Видимость 10 км и более
дождь,

METAR: ESSV 221420Z AUTO 08012KT 9999 RA VV019 15/12 Q1007 REDZ

Время: 17:07 (15:07 UTC)

Прогноз

Эта сводка был подготовлена 3 часа и 37 минут назад, в 11:30 UTC
Прогноз действительный с 22-го 12 UTC до 22-го 15 UTC
Ветер 12 Узел от восточный
Видимость 10 км и более
небольшая облачность на высоте 2500 фута
Сплошная облачность на высоте 5000 фута
небольшой дождь
временами
С 22-го 12 UTC до 22-го 15 UTC
Рассеянная облачность на высоте 5000 фута, Кучево-дождевые.
ливневые дожди,

TAF: ESSV 221130Z 2212/2215 09012KT 9999 -RA FEW025 OVC050 TEMPO 2212/2215 SHRA BKN050CB

Метеонаблюдения и прогнозы для более 4000 аэропортов (сводки METAR и TAF).

Имеющиеся станции представлены на карте желтыми и красными точками.

Чтобы увидеть название станции, наведите на нее мышь.

Затем щелкните, чтобы увидеть метеонаблюдения и метеопрогнозы.

Управление картой: чтобы увеличить масштаб, щелкните зеленые кнопки с черным крестиком; чтобы уменьшить масштаб, щелкните зеленую кнопку с тире; для просмотра соседних карт щелкайте зеленые стрелки.


METAR-TAF: